Flight Track Log - Related Links

Times and Time Zones

All times are in EDT time to prevent confusion due to time zone crossing. See the N72PV flight status page for this flight to view local times or setup timezone preferences in your user account.

Time Position Orientation Groundspeed Altitude Reporting Facility
EDT Latitude Longitude Course Direction KTS MPH feet Rate Location/Type
Fri 04:12:48 PM 45.7158 -122.6747 North 168 193 1,400  Level Seattle Center
Fri 04:14:07 PM 45.7733 -122.6700 North 158 182 2,200 771 Climbing Seattle Center
Fri 04:15:08 PM 45.8139 -122.6781 352° North 143 165 3,200 845 Climbing Seattle Center
Fri 04:16:29 PM 45.8600 -122.6717 North 146 168 4,200 671 Climbing Seattle Center
Fri 04:17:31 PM 45.9056 -122.6614 North 142 163 4,800 406 Climbing Seattle Center
Fri 04:23:08 PM 46.1442 -122.6920 North 151 174 6,900 380 Climbing FlightAware ADS-B
Fri 04:23:18 PM 46.1506 -122.6940 348° North 151 174 7,000 480 Climbing FlightAware ADS-B
Fri 04:23:33 PM 46.1611 -122.6970 349° North 149 171 7,100 375 Climbing FlightAware ADS-B
Fri 04:23:50 PM 46.1726 -122.7000 350° North 149 171 7,200 364 Climbing FlightAware ADS-B
Fri 04:24:06 PM 46.1836 -122.7030 349° North 148 170 7,300 387 Climbing FlightAware ADS-B
Fri 04:24:21 PM 46.1939 -122.7050 352° North 148 170 7,400 387 Climbing FlightAware ADS-B
Fri 04:24:37 PM 46.2042 -122.7080 349° North 147 169 7,500 429 Climbing FlightAware ADS-B
Fri 04:24:49 PM 46.2122 -122.7090 355° North 147 169 7,600 353 Climbing FlightAware ADS-B
Fri 04:24:54 PM 46.2159 -122.7100 349° North 147 169 7,600 353 Level FlightAware ADS-B
Fri 04:25:06 PM 46.2240 -122.7120 350° North 145 167 7,700 522 Climbing FlightAware ADS-B
Fri 04:25:17 PM 46.2310 -122.7140 349° North 146 168 7,800 231 Climbing FlightAware ADS-B
Fri 04:25:32 PM 46.2412 -122.7170 349° North 148 170 7,800  Level FlightAware ADS-B
Fri 04:25:47 PM 46.2516 -122.7190 352° North 153 176 7,800  Level FlightAware ADS-B
Fri 04:25:57 PM 46.2586 -122.7210 349° North 156 180 7,800  Level FlightAware ADS-B
Fri 04:26:10 PM 46.2676 -122.7240 347° North 159 183 7,800  Level FlightAware ADS-B
Fri 04:26:25 PM 46.2787 -122.7260 353° North 158 182 7,800  Level FlightAware ADS-B
Fri 04:26:40 PM 46.2896 -122.7290 349° North 157 181 7,800  Level FlightAware ADS-B
Fri 04:26:48 PM 46.2949 -122.7310 345° North 157 181 7,800  Level FlightAware ADS-B
Fri 04:26:57 PM 46.3018 -122.7320 354° North 157 181 7,800  Level FlightAware ADS-B
Fri 04:27:13 PM 46.3129 -122.7350 349° North 157 181 7,800  Level FlightAware ADS-B
Fri 04:27:28 PM 46.3238 -122.7370 353° North 158 182 7,800  Level FlightAware ADS-B
Fri 04:27:40 PM 46.3322 -122.7400 346° North 158 182 7,800  Level FlightAware ADS-B
Fri 04:27:53 PM 46.3420 -122.7420 352° North 159 183 7,800  Level FlightAware ADS-B
Fri 04:28:09 PM 46.3529 -122.7450 349° North 159 183 7,800  Level FlightAware ADS-B
Fri 04:28:17 PM 46.3592 -122.7470 348° North 159 183 7,800  Level FlightAware ADS-B
Fri 04:28:34 PM 46.3709 -122.7500 350° North 158 182 7,800  Level FlightAware ADS-B
Fri 04:28:49 PM 46.3820 -122.7530 349° North 158 182 7,800  Level FlightAware ADS-B
Fri 04:29:04 PM 46.3930 -122.7560 349° North 159 183 7,800  Level FlightAware ADS-B
Fri 04:29:14 PM 46.4000 -122.7570 354° North 159 183 7,800  Level FlightAware ADS-B
Fri 04:29:29 PM 46.4114 -122.7600 350° North 160 184 7,800  Level FlightAware ADS-B
Fri 04:29:40 PM 46.4188 -122.7620 349° North 162 186 7,800  Level FlightAware ADS-B
Fri 04:29:51 PM 46.4276 -122.7650 347° North 161 185 7,800  Level FlightAware ADS-B
Fri 04:30:05 PM 46.4374 -122.7670 352° North 161 185 7,800  Level FlightAware ADS-B
Fri 04:30:14 PM 46.4439 -122.7690 348° North 162 186 7,800  Level FlightAware ADS-B
Fri 04:30:29 PM 46.4552 -122.7710 353° North 162 186 7,800  Level FlightAware ADS-B
Fri 04:30:44 PM 46.4664 -122.7740 350° North 161 185 7,800  Level FlightAware ADS-B
Fri 04:30:56 PM 46.4753 -122.7770 347° North 162 186 7,800  Level FlightAware ADS-B
Fri 04:31:05 PM 46.4815 -122.7780 354° North 160 184 7,800  Level FlightAware ADS-B
Fri 04:31:19 PM 46.4919 -122.7810 349° North 160 184 7,800  Level FlightAware ADS-B
Fri 04:31:28 PM 46.4985 -122.7820 354° North 160 184 7,800  Level FlightAware ADS-B
Fri 04:31:43 PM 46.5095 -122.7850 349° North 161 185 7,800  Level FlightAware ADS-B
Fri 04:31:52 PM 46.5165 -122.7870 349° North 162 186 7,800  Level FlightAware ADS-B
Fri 04:32:08 PM 46.5281 -122.7900 350° North 162 186 7,800  Level FlightAware ADS-B
Fri 04:32:18 PM 46.5353 -122.7920 349° North 164 189 7,800  Level FlightAware ADS-B
Fri 04:32:33 PM 46.5467 -122.7950 350° North 164 189 7,800  Level FlightAware ADS-B
Fri 04:32:48 PM 46.5579 -122.7980 350° North 164 189 7,800  Level FlightAware ADS-B
Fri 04:32:59 PM 46.5657 -122.8000 350° North 164 189 7,800  Level FlightAware ADS-B
Fri 04:33:12 PM 46.5760 -122.8020 352° North 164 189 7,800  Level FlightAware ADS-B
Fri 04:33:28 PM 46.5873 -122.8050 350° North 165 190 7,800  Level FlightAware ADS-B
Fri 04:33:43 PM 46.5992 -122.8080 350° North 165 190 7,800  Level FlightAware ADS-B
Fri 04:34:00 PM 46.6115 -122.8110 350° North 164 189 7,800  Level FlightAware ADS-B
Fri 04:34:38 PM 46.6400 -122.8190 349° North 163 188 7,800  Level FlightAware ADS-B
Fri 04:34:54 PM 46.6514 -122.8220 350° North 164 189 7,800  Level FlightAware ADS-B
Fri 04:35:03 PM 46.6587 -122.8230 355° North 164 189 7,800  Level FlightAware ADS-B
Fri 04:35:20 PM 46.6716 -122.8260 351° North 163 188 7,800  Level FlightAware ADS-B
Fri 04:35:31 PM 46.6794 -122.8280 350° North 163 188 7,800  Level FlightAware ADS-B
Fri 04:35:40 PM 46.6864 -122.8300 349° North 163 188 7,800  Level FlightAware ADS-B
Fri 04:35:49 PM 46.6924 -122.8310 353° North 162 186 7,800  Level FlightAware ADS-B
Fri 04:35:57 PM 46.6985 -122.8330 347° North 163 188 7,800  Level FlightAware ADS-B
Fri 04:36:04 PM 46.7038 -122.8340 353° North 164 189 7,800  Level FlightAware ADS-B
Fri 04:36:19 PM 46.7154 -122.8370 350° North 164 189 7,800  Level FlightAware ADS-B
Fri 04:36:31 PM 46.7243 -122.8390 351° North 165 190 7,800  Level FlightAware ADS-B
Fri 04:36:47 PM 46.7359 -122.8420 350° North 164 189 7,800  Level FlightAware ADS-B
Fri 04:36:57 PM 46.7434 -122.8440 350° North 163 188 7,800  Level FlightAware ADS-B
Fri 04:37:05 PM 46.7496 -122.8460 348° North 163 188 7,800  Level FlightAware ADS-B
Fri 04:37:12 PM 46.7549 -122.8470 353° North 163 188 7,800  Level FlightAware ADS-B
Fri 04:37:26 PM 46.7652 -122.8500 349° North 163 188 7,800  Level FlightAware ADS-B
Fri 04:37:42 PM 46.7769 -122.8530 350° North 163 188 7,800  Level FlightAware ADS-B
Fri 04:37:51 PM 46.7839 -122.8550 349° North 164 189 7,800  Level FlightAware ADS-B
Fri 04:38:01 PM 46.7907 -122.8560 354° North 164 189 7,800  Level FlightAware ADS-B
Fri 04:38:15 PM 46.8015 -122.8590 349° North 165 190 7,800  Level FlightAware ADS-B
Fri 04:38:30 PM 46.8129 -122.8620 350° North 164 189 7,800  Level FlightAware ADS-B
Fri 04:38:42 PM 46.8218 -122.8640 351° North 164 189 7,800  Level FlightAware ADS-B
Fri 04:38:49 PM 46.8273 -122.8650 353° North 164 189 7,800  Level FlightAware ADS-B
Fri 04:39:03 PM 46.8378 -122.8680 349° North 166 191 7,800 -240 Level FlightAware ADS-B
Fri 04:39:14 PM 46.8460 -122.8700 351° North 170 196 7,700 -462 Descending FlightAware ADS-B
Fri 04:39:29 PM 46.8579 -122.8730 350° North 173 199 7,600 -522 Descending FlightAware ADS-B
Fri 04:39:37 PM 46.8645 -122.8750 348° North 175 201 7,500 -500 Descending FlightAware ADS-B
Fri 04:39:53 PM 46.8771 -122.8780 351° North 176 203 7,400 -375 Descending FlightAware ADS-B
Fri 04:40:09 PM 46.8894 -122.8810 351° North 175 201 7,300 -387 Descending FlightAware ADS-B
Fri 04:40:24 PM 46.9017 -122.8840 351° North 175 201 7,200 -414 Descending FlightAware ADS-B
Fri 04:40:38 PM 46.9127 -122.8870 349° North 176 203 7,100 -545 Descending FlightAware ADS-B
Fri 04:40:46 PM 46.9198 -122.8880 355° North 176 203 7,000 -522 Descending FlightAware ADS-B
Fri 04:41:01 PM 46.9319 -122.8910 350° North 176 203 6,900 -480 Descending FlightAware ADS-B
Fri 04:41:11 PM 46.9393 -122.8930 350° North 176 203 6,800 -375 Descending FlightAware ADS-B
Fri 04:41:17 PM 46.9446 -122.8940 353° North 175 201 6,800 -353 Level FlightAware ADS-B
Fri 04:41:28 PM 46.9531 -122.8960 351° North 175 201 6,700 -545 Descending FlightAware ADS-B
Fri 04:41:39 PM 46.9623 -122.8980 352° North 173 199 6,600 -571 Descending FlightAware ADS-B
Fri 04:41:49 PM 46.9695 -122.9000 349° North 172 198 6,500 -429 Descending FlightAware ADS-B
Fri 04:41:53 PM 46.9730 -122.9000 360° North 172 198 6,500 -750 Level FlightAware ADS-B
Fri 04:41:57 PM 46.9766 -122.9000 360° North 173 199 6,400 -429 Descending FlightAware ADS-B
Fri 04:42:07 PM 46.9841 -122.9000 360° North 172 198 6,400 -300 Level FlightAware ADS-B
Fri 04:42:17 PM 46.9923 -122.8980 North 172 198 6,300 -545 Descending FlightAware ADS-B
Fri 04:42:29 PM 47.0014 -122.8960 North 171 197 6,200 -571 Descending FlightAware ADS-B
Fri 04:42:38 PM 47.0087 -122.8940 11° North 172 198 6,100 -522 Descending FlightAware ADS-B
Fri 04:42:52 PM 47.0194 -122.8910 11° North 171 197 6,000 -480 Descending FlightAware ADS-B
Fri 04:43:03 PM 47.0283 -122.8890 North 172 198 5,900 -632 Descending FlightAware ADS-B
Fri 04:43:11 PM 47.0344 -122.8870 13° North 172 198 5,800 -500 Descending FlightAware ADS-B
Fri 04:43:27 PM 47.0464 -122.8840 10° North 174 200 5,700 -581 Descending FlightAware ADS-B
Fri 04:43:42 PM 47.0583 -122.8800 13° North 175 201 5,500 -800 Descending FlightAware ADS-B
Fri 04:43:57 PM 47.0703 -122.8760 13° North 175 201 5,300 -581 Descending FlightAware ADS-B
Fri 04:44:13 PM 47.0830 -122.8730 North 175 201 5,200 -581 Descending FlightAware ADS-B
Fri 04:44:28 PM 47.0950 -122.8690 13° North 174 200 5,000 -800 Descending FlightAware ADS-B
Fri 04:44:43 PM 47.1071 -122.8650 13° North 174 200 4,800 -581 Descending FlightAware ADS-B
Fri 04:44:59 PM 47.1192 -122.8610 13° North 173 199 4,700 -667 Descending FlightAware ADS-B
Fri 04:45:10 PM 47.1279 -122.8580 13° North 173 199 4,500 -720 Descending FlightAware ADS-B
Fri 04:45:24 PM 47.1387 -122.8550 11° North 172 198 4,400 -600 Descending FlightAware ADS-B
Fri 04:45:30 PM 47.1438 -122.8530 15° North 172 198 4,300 -800 Descending FlightAware ADS-B
Fri 04:45:39 PM 47.1507 -122.8520 North 171 197 4,200 -750 Descending FlightAware ADS-B
Fri 04:45:54 PM 47.1624 -122.8480 13° North 170 196 4,000 -581 Descending FlightAware ADS-B
Fri 04:46:10 PM 47.1742 -122.8450 10° North 169 194 3,900 -581 Descending FlightAware ADS-B
Fri 04:46:25 PM 47.1860 -122.8420 10° North 169 194 3,700 -667 Descending FlightAware ADS-B
Fri 04:46:37 PM 47.1952 -122.8400 North 169 194 3,600 -545 Descending FlightAware ADS-B
Fri 04:46:47 PM 47.2029 -122.8380 10° North 169 194 3,500 -692 Descending FlightAware ADS-B
Fri 04:47:03 PM 47.2148 -122.8340 13° North 168 193 3,300 -720 Descending FlightAware ADS-B
Fri 04:47:12 PM 47.2218 -122.8320 11° North 167 192 3,200 -632 Descending FlightAware ADS-B
Fri 04:47:22 PM 47.2297 -122.8300 10° North 167 192 3,100 -571 Descending FlightAware ADS-B
Fri 04:47:33 PM 47.2382 -122.8270 13° North 166 191 3,000 -462 Descending FlightAware ADS-B
Fri 04:47:48 PM 47.2495 -122.8240 10° North 164 189 2,900 -462 Descending FlightAware ADS-B
Fri 04:47:59 PM 47.2574 -122.8230 North 163 188 2,800 -462 Descending FlightAware ADS-B
Fri 04:48:14 PM 47.2685 -122.8200 10° North 161 185 2,700 -400 Descending FlightAware ADS-B
Fri 04:48:29 PM 47.2795 -122.8180 North 159 183 2,600 -480 Descending FlightAware ADS-B
Fri 04:48:39 PM 47.2868 -122.8160 11° North 159 183 2,500 -462 Descending FlightAware ADS-B
Fri 04:48:55 PM 47.2982 -122.8130 10° North 159 183 2,400 -231 Descending FlightAware ADS-B
Fri 04:49:05 PM 47.3054 -122.8110 11° North 159 183 2,400 -333 Level FlightAware ADS-B
Fri 04:49:13 PM 47.3115 -122.8090 13° North 159 183 2,300 -400 Descending FlightAware ADS-B
Fri 04:49:20 PM 47.3164 -122.8080 North 159 183 2,300 -400 Level FlightAware ADS-B
Fri 04:49:28 PM 47.3220 -122.8070 North 160 184 2,200 -522 Descending FlightAware ADS-B
Fri 04:49:43 PM 47.3333 -122.8040 10° North 159 183 2,100 -400 Descending FlightAware ADS-B
Fri 04:49:58 PM 47.3444 -122.8010 10° North 160 184 2,000 -240 Descending FlightAware ADS-B
Fri 04:50:08 PM 47.3512 -122.7990 11° North 160 184 2,000 -333 Level FlightAware ADS-B
Fri 04:50:16 PM 47.3569 -122.7980 North 159 183 1,900 -522 Descending FlightAware ADS-B
Fri 04:50:31 PM 47.3678 -122.7950 11° North 159 183 1,800 -414 Descending FlightAware ADS-B
Fri 04:50:45 PM 47.3784 -122.7930 North 161 185 1,700 -273 Descending FlightAware ADS-B
Fri 04:50:53 PM 47.3844 -122.7910 13° North 160 184 1,700 -400 Level FlightAware ADS-B
Fri 04:51:00 PM 47.3895 -122.7900 North 156 180 1,600 -353 Descending FlightAware ADS-B
Fri 04:51:10 PM 47.3960 -122.7880 12° North 154 177 1,600 -286 Level FlightAware ADS-B
Fri 04:51:21 PM 47.4039 -122.7860 10° North 150 173 1,500 -231 Descending FlightAware ADS-B
Fri 04:51:36 PM 47.4138 -122.7840 North 138 159 1,500 -261 Level FlightAware ADS-B
Fri 04:51:44 PM 47.4187 -122.7820 15° North 136 157 1,400 -750 Descending FlightAware ADS-B
Fri 04:51:52 PM 47.4234 -122.7810 North 134 154 1,300 -462 Descending FlightAware ADS-B
Fri 04:51:57 PM 47.4269 -122.7800 11° North 132 152 1,300 -316 Level FlightAware ADS-B
Fri 04:52:11 PM 47.4349 -122.7780 10° North 129 148 1,200 -300 Descending FlightAware ADS-B
Fri 04:52:17 PM 47.4382 -122.7780 360° North 127 146 1,200 -500 Level FlightAware ADS-B
Fri 04:52:23 PM 47.4419 -122.7770 10° North 125 144 1,100 -400 Descending FlightAware ADS-B
Fri 04:52:32 PM 47.4467 -122.7750 16° North 122 140 1,100  Level FlightAware ADS-B
Fri 04:52:36 PM 47.4492 -122.7750 360° North 119 137 1,100  Level FlightAware ADS-B
Fri 04:52:39 PM 47.4508 -122.7740 23° Northeast 115 132 1,100 857 Level FlightAware ADS-B
Fri 04:52:43 PM 47.4526 -122.7720 37° Northeast 110 127 1,200 750 Climbing FlightAware ADS-B
Fri 04:52:47 PM 47.4541 -122.7710 24° Northeast 106 122 1,200  Level FlightAware ADS-B
Fri 04:52:50 PM 47.4554 -122.7700 27° Northeast 102 117 1,200  Level FlightAware ADS-B
Fri 04:52:54 PM 47.4567 -122.7680 46° Northeast 100 115 1,200 500 Level FlightAware ADS-B
Fri 04:53:02 PM 47.4597 -122.7650 34° Northeast 97 112 1,300 429 Climbing FlightAware ADS-B
Fri 04:53:08 PM 47.4615 -122.7620 48° Northeast 94 108 1,300  Level FlightAware ADS-B
Fri 04:53:15 PM 47.4638 -122.7590 41° Northeast 94 108 1,300  Level FlightAware ADS-B
Fri 04:53:22 PM 47.4662 -122.7560 40° Northeast 94 108 1,300  Level FlightAware ADS-B
Fri 04:53:28 PM 47.4679 -122.7540 38° Northeast 94 108 1,300  Level FlightAware ADS-B
Fri 04:53:38 PM 47.4713 -122.7500 38° Northeast 97 112 1,300 273 Level FlightAware ADS-B
Fri 04:53:50 PM 47.4757 -122.7440 43° Northeast 101 116 1,400 333 Climbing FlightAware ADS-B
Fri 04:53:56 PM 47.4780 -122.7420 30° Northeast 98 113 1,400 -667 Level FlightAware ADS-B
Fri 04:53:59 PM 47.4791 -122.7400 51° Northeast 100 115 1,300 -429 Descending FlightAware ADS-B
Fri 04:54:10 PM 47.4831 -122.7360 34° Northeast 103 119 1,300 -286 Level FlightAware ADS-B
Fri 04:54:20 PM 47.4868 -122.7320 36° Northeast 101 116 1,200 -286 Descending FlightAware ADS-B
Fri 04:54:31 PM 47.4911 -122.7270 38° Northeast 99 114 1,200  Level FlightAware ADS-B
Fri 04:54:50 PM 47.4978 -122.7200 35° Northeast 98 113 1,200  Level FlightAware ADS-B
Fri 04:54:54 PM 47.4994 -122.7180 40° Northeast 98 113 1,200 -857 Level FlightAware ADS-B
Fri 04:54:57 PM 47.5008 -122.7170 26° Northeast 97 112 1,100 -750 Descending FlightAware ADS-B
Fri 04:55:02 PM 47.5025 -122.7160 22° Northeast 95 109 1,100  Level FlightAware ADS-B
Fri 04:55:05 PM 47.5039 -122.7160 360° North 93 107 1,100  Level FlightAware ADS-B
Fri 04:55:09 PM 47.5058 -122.7170 340° North 92 106 1,100  Level FlightAware ADS-B
Fri 04:55:13 PM 47.5071 -122.7180 333° Northwest 92 106 1,100  Level FlightAware ADS-B
Fri 04:55:16 PM 47.5082 -122.7200 309° West 91 105 1,100  Level FlightAware ADS-B
Fri 04:55:20 PM 47.5092 -122.7210 326° Northwest 91 105 1,100 -300 Level FlightAware ADS-B
Fri 04:55:36 PM 47.5129 -122.7290 304° West 89 102 1,000 -615 Descending FlightAware ADS-B
Fri 04:55:59 PM 47.5119 -122.7420 264° West 89 102 700 -783 Descending FlightAware ADS-B

Login

Don't have an account? Register now (free) for customized features, flight alerts, and more!